DAL2016 KSLC-KSEA
Flight info
| Callsign | DAL2016 |
|---|---|
| Flight time | N/A |
| Altitude | 36000 |
| Route | CGULL1 TWF BOI J163 HOVEL PDT CHINS5 |
| Aircraft | A321/M-SDE3FGHIRWY/LB1 |
Departure
| Time | 2026-05-08 03:45 |
|---|---|
| Airport | Salt Lake City International Airport (KSLC) |
Arrival
| Time | N/A |
|---|---|
| Airport | Seattle–Tacoma International Airport (KSEA) |
| Time | Latitude | Longitude | Altitude | Speed | Heading |
|---|---|---|---|---|---|
| 2026-05-08 03:35 | 40.78649 | -111.98154 | 4231 ft | 0 kts | 175° |
| 2026-05-08 03:37 | 40.78656 | -111.98155 | 4231 ft | 4 kts | 174° |
| 2026-05-08 03:37 | 40.78682 | -111.98161 | 4231 ft | 4 kts | 162° |
| 2026-05-08 03:37 | 40.78707 | -111.98175 | 4231 ft | 4 kts | 142° |
| 2026-05-08 03:37 | 40.78723 | -111.98200 | 4231 ft | 4 kts | 102° |
| 2026-05-08 03:38 | 40.78724 | -111.98214 | 4231 ft | 0 kts | 85° |
| 2026-05-08 03:39 | 40.78725 | -111.98207 | 4231 ft | 3 kts | 85° |
| 2026-05-08 03:40 | 40.78730 | -111.98133 | 4231 ft | 13 kts | 84° |
| 2026-05-08 03:40 | 40.78738 | -111.98014 | 4231 ft | 13 kts | 84° |
| 2026-05-08 03:40 | 40.78750 | -111.97843 | 4231 ft | 22 kts | 84° |
| 2026-05-08 03:40 | 40.78732 | -111.97686 | 4231 ft | 12 kts | 144° |
| 2026-05-08 03:41 | 40.78634 | -111.97668 | 4231 ft | 18 kts | 175° |
| 2026-05-08 03:41 | 40.78502 | -111.97653 | 4231 ft | 19 kts | 175° |
| 2026-05-08 03:41 | 40.78378 | -111.97638 | 4230 ft | 17 kts | 175° |
| 2026-05-08 03:41 | 40.78264 | -111.97625 | 4230 ft | 16 kts | 175° |
| 2026-05-08 03:42 | 40.78161 | -111.97613 | 4230 ft | 14 kts | 175° |
| 2026-05-08 03:42 | 40.78061 | -111.97602 | 4237 ft | 16 kts | 175° |
| 2026-05-08 03:42 | 40.77949 | -111.97583 | 4251 ft | 17 kts | 162° |
| 2026-05-08 03:42 | 40.77836 | -111.97524 | 4251 ft | 18 kts | 168° |
| 2026-05-08 03:43 | 40.77709 | -111.97511 | 4252 ft | 18 kts | 175° |
| 2026-05-08 03:43 | 40.77588 | -111.97497 | 4252 ft | 17 kts | 175° |
| 2026-05-08 03:43 | 40.77479 | -111.97482 | 4251 ft | 12 kts | 167° |
| 2026-05-08 03:43 | 40.77468 | -111.97476 | 4252 ft | 0 kts | 154° |
| 2026-05-08 03:44 | 40.77457 | -111.97466 | 4252 ft | 6 kts | 139° |
| 2026-05-08 03:44 | 40.77461 | -111.97380 | 4251 ft | 13 kts | 57° |
| 2026-05-08 03:44 | 40.77526 | -111.97323 | 4251 ft | 11 kts | 2° |
| 2026-05-08 03:44 | 40.77638 | -111.97334 | 4251 ft | 34 kts | 355° |
| 2026-05-08 03:45 | 40.78108 | -111.97392 | 4249 ft | 100 kts | 354° |
| 2026-05-08 03:45 | 40.78989 | -111.97493 | 4232 ft | 152 kts | 355° |
| 2026-05-08 03:45 | 40.80184 | -111.97636 | 4268 ft | 188 kts | 354° |
| 2026-05-08 03:45 | 40.81483 | -111.97795 | 4897 ft | 187 kts | 354° |
| 2026-05-08 03:46 | 40.82682 | -111.98386 | 5521 ft | 188 kts | 318° |
| 2026-05-08 03:46 | 40.83415 | -111.99817 | 6076 ft | 194 kts | 294° |
| 2026-05-08 03:46 | 40.83988 | -112.01494 | 6252 ft | 207 kts | 305° |
| 2026-05-08 03:46 | 40.84897 | -112.03002 | 6545 ft | 211 kts | 309° |
| 2026-05-08 03:47 | 40.85819 | -112.04577 | 6697 ft | 223 kts | 307° |
| 2026-05-08 03:47 | 40.86769 | -112.06263 | 6760 ft | 236 kts | 306° |
| 2026-05-08 03:47 | 40.87741 | -112.08005 | 7265 ft | 237 kts | 306° |
| 2026-05-08 03:47 | 40.88740 | -112.09797 | 7683 ft | 247 kts | 306° |
| 2026-05-08 03:48 | 40.89783 | -112.11670 | 8130 ft | 258 kts | 306° |
| 2026-05-08 03:48 | 40.90872 | -112.13619 | 8569 ft | 269 kts | 306° |
| 2026-05-08 03:48 | 40.91999 | -112.15636 | 9019 ft | 275 kts | 306° |
| 2026-05-08 03:48 | 40.93120 | -112.17649 | 9609 ft | 276 kts | 306° |
| 2026-05-08 03:49 | 40.94278 | -112.19723 | 10190 ft | 278 kts | 306° |
| 2026-05-08 03:49 | 40.95423 | -112.21771 | 10742 ft | 282 kts | 306° |
| 2026-05-08 03:49 | 40.96602 | -112.23885 | 11334 ft | 289 kts | 305° |
| 2026-05-08 03:49 | 40.97809 | -112.26050 | 11923 ft | 295 kts | 305° |
| 2026-05-08 03:50 | 40.99032 | -112.28251 | 12523 ft | 299 kts | 305° |
| 2026-05-08 03:50 | 41.00289 | -112.30517 | 13144 ft | 304 kts | 304° |
| 2026-05-08 03:50 | 41.01530 | -112.32755 | 13765 ft | 308 kts | 305° |
| 2026-05-08 03:50 | 41.02804 | -112.35049 | 14313 ft | 311 kts | 305° |
| 2026-05-08 03:51 | 41.04098 | -112.37379 | 14722 ft | 321 kts | 306° |
| 2026-05-08 03:51 | 41.05452 | -112.39825 | 14909 ft | 336 kts | 306° |
| 2026-05-08 03:51 | 41.06970 | -112.42215 | 15367 ft | 342 kts | 315° |
| 2026-05-08 03:51 | 41.08856 | -112.44177 | 15901 ft | 347 kts | 326° |
| 2026-05-08 03:52 | 41.10911 | -112.45885 | 16440 ft | 350 kts | 326° |
| 2026-05-08 03:52 | 41.12980 | -112.47609 | 16998 ft | 353 kts | 326° |
| 2026-05-08 03:52 | 41.15064 | -112.49356 | 17556 ft | 355 kts | 326° |
| 2026-05-08 03:52 | 41.17151 | -112.51133 | 18100 ft | 358 kts | 325° |
| 2026-05-08 03:53 | 41.19194 | -112.53035 | 18567 ft | 360 kts | 323° |
| 2026-05-08 03:53 | 41.21201 | -112.55050 | 19013 ft | 363 kts | 322° |
| 2026-05-08 03:53 | 41.23191 | -112.57130 | 19455 ft | 366 kts | 321° |
| 2026-05-08 03:53 | 41.25190 | -112.59237 | 19881 ft | 368 kts | 321° |
| 2026-05-08 03:54 | 41.27204 | -112.61361 | 20306 ft | 371 kts | 320° |
| 2026-05-08 03:54 | 41.29042 | -112.63794 | 20726 ft | 374 kts | 313° |
| 2026-05-08 03:54 | 41.30790 | -112.66377 | 21151 ft | 377 kts | 313° |
| 2026-05-08 03:54 | 41.32561 | -112.68968 | 21570 ft | 380 kts | 313° |
| 2026-05-08 03:55 | 41.34349 | -112.71571 | 22030 ft | 382 kts | 313° |